CheckWX is a tool to help pilots better visualize weather data.  It is not intended as a substitute for an official pre-flight weather briefing.

21:54:13 UTC

KLAA METAR
Lamar Municipal Airport
Lamar, Colorado, USA
Current

21 mins ago

KLAA 232133Z AUTO 08010KT 10SM FEW010 OVC015 10/07 A2995 RMK AO2 T01000072
Observed
May-23 @ 21:33 UTC
Wind
  • 080° at 10 KTS
Visibility
10 SM
Flight Rules
MVFR
Cloud Levels
  • Few at 1,000' AGL
  • Overcast at 1,500' AGL
Temperature
10°C / 50°F
Dewpoint
C / 45°F
Humidity
82%
Altimeter
29.95" Hg
Pressure
1014.22 hPa
Previous

51 mins ago

KLAA 232103Z AUTO 10SM BKN010 OVC013 09/07 A2997 RMK AO2 CIG 006V012 T00890072
Observed
May-23 @ 21:03 UTC
Visibility
10 SM
Flight Rules
MVFR
Cloud Levels
  • Broken at 1,000' AGL
  • Overcast at 1,300' AGL
Temperature
C / 48°F
Dewpoint
C / 45°F
Humidity
87%
Altimeter
29.97" Hg
Pressure
1014.92 hPa
Previous

1 hour ago

KLAA 232053Z AUTO 06007KT 10SM BKN008 BKN012 OVC018 09/07 A2998 RMK AO2 RAB07E20 CIG 006V010 SLP136 P0000 60001 T00940072 58022
Observed
May-23 @ 20:53 UTC
Wind
  • 060° at 7 KTS
Visibility
10 SM
Flight Rules
IFR
Cloud Levels
  • Broken at 800' AGL
  • Broken at 1,200' AGL
  • Overcast at 1,800' AGL
Temperature
C / 48°F
Dewpoint
C / 45°F
Humidity
87%
Altimeter
29.98" Hg
Pressure
1015.22 hPa
Current Rain
0.01"